Aeroporto :
LOGIN :

Iscrizione | Disclaimer

   EN    FR    IT 

 










Sommario :    VFR   VFR Marginale   IFR   IFR Intensivo   IFR Molto Intensivo
Visibilità : 
Base nubi : 
>= 8 km
>= 3000ft
5 / 8 km
1000 / 3000 ft
1500m / 5 km
500 / 1000 ft
800 / 1500m
200 / 500 ft
< 800m
< 200 ft
Simboli :   Temporali  Nebbia  Neve Forte  Precipitazioni Forti  Vento > 20 kt
SIGMETs :   Varie  Temporali  Ghiacco  Turbolenza  Onda orograficha  Ceneri Vulcaniche






- Altitudine del aeroporto : 137 ft


LIPS - Istrana AFB Treviso

ULTIMO METAR :
  • 312355Z /////KT CAVOK 04/M04 Q1024 RMK SKC VIS MIN 9999 WIND THR26 00000KT WIND THR08 00000KT BLU

METARs OBSOLETI :
  • 312255Z /////KT 9999 SCT070 05/M03 Q1024 RMK SCT VIS MIN 9999 WIND THR26 01005KT WIND THR08 04004KT BLU
  • 312155Z /////KT 9999 BKN070 05/M03 Q1025 RMK BKN VIS MIN 9999 WIND THR26 01006KT WIND THR08 05006KT BLU

TAF TAF LIPS
Valido dal 31 a 18 ore il 01 a 03 ore UTC


311700Z 3118/0103 04005KT 9999 BKN100



MetMap, La meteo Aeronautica in un colpo d'occhio ! - Copyright ORBIFLY Dicembre 2007 - Disclaimer

ORBIFLY MET'MAP TEAM :

Programmazione e sviluppo : Alexandra Zaïnal
Concezione : Baudouin d'Aumeries
Aiuto per la programmazione : Marc-Olivier Méhu
Supporto tecnico e logistico : Manuel Goepfert
Aiuto per la traduzione : Arnaldo La Scala

Contatto : metmap@orbifly.com




FONTI E CREDITI :

   NOAA